Catalonia — 9HWS7 — position and weather

sailwx.info

Track history (hours):
 
Tides and Currents Weather Stations Pressure Air Temp Water Temp Dewpoint Dewpoint Depression Visibility Wind Speed Wind Dir Waves Ship Positions

Catalonia

Last reported at 2016-Jun-23 20:26 UTC. Time now 2016-Jun-24 20:24 UTC.
Position N 40°46' E 029°29'.

Length 189 m; draft 7.3 m.

Type: Cargo ship. MMSI: 215929000.

Date/timePositionNaut miles runAvg speedWind from/ knotsBaromVisibWave heightAir tempDewpointWater temp
2016-Jun-23 20:26N 40°46' E 029°29'0 0.0
2016-Jun-23 15:20N 40°46' E 029°29'0 0.0
2016-Jun-23 04:26N 40°46' E 029°29'0 0.0
2016-Jun-23 02:20N 40°46' E 029°29'0 0.0
2016-Jun-22 06:20N 40°46' E 029°29'0 0.0
2016-Jun-22 04:32N 40°46' E 029°29'0 0.0
2016-Jun-22 01:32N 40°46' E 029°29'0 0.0
2016-Jun-21 22:32N 40°46' E 029°29'0 0.0
2016-Jun-21 18:20N 40°46' E 029°29'0 0.0
2016-Jun-21 14:19N 40°46' E 029°29'2 2.5
2016-Jun-21 13:33N 40°44' E 029°28'9 9.0
2016-Jun-21 12:33N 40°44' E 029°16'1211.6
2016-Jun-21 11:33N 40°45' E 029°01'1312.3
2016-Jun-21 10:30N 40°58' E 028°58'433 9.6
2016-Jun-19 13:32N 44°29' E 037°33'1212.6
2016-Jun-19 12:33N 44°36' E 037°47'7 7.2
2016-Jun-19 11:33N 44°43' E 037°48'0 0.3
2016-Jun-19 10:32N 44°43' E 037°48'0 0.0
2016-Jun-19 09:32N 44°43' E 037°48'0 0.0
2016-Jun-19 08:32N 44°43' E 037°48'0 0.0
2016-Jun-19 07:32N 44°43' E 037°48'0 0.0
2016-Jun-19 06:32N 44°43' E 037°48'0 0.0
2016-Jun-19 05:32N 44°43' E 037°48'0 0.0
2016-Jun-19 04:32N 44°43' E 037°48'0 0.0
2016-Jun-19 03:32N 44°43' E 037°48'0 0.0
2016-Jun-19 02:32N 44°43' E 037°48'0 0.0
2016-Jun-19 01:32N 44°43' E 037°48'0 0.0
2016-Jun-19 00:32N 44°43' E 037°48'0 0.0
2016-Jun-18 23:32N 44°43' E 037°48'0 0.0
2016-Jun-18 22:32N 44°43' E 037°48'0 0.0
2016-Jun-18 21:32N 44°43' E 037°48'0 0.0
2016-Jun-18 20:32N 44°43' E 037°48'0 0.0
2016-Jun-18 19:32N 44°43' E 037°48'0 0.0
2016-Jun-18 18:32N 44°43' E 037°48'0 0.0
2016-Jun-18 17:23N 44°43' E 037°48'0 0.0
2016-Jun-18 16:32N 44°43' E 037°48'0 0.0
2016-Jun-18 15:32N 44°43' E 037°48'0 0.0
2016-Jun-18 14:32N 44°43' E 037°48'0 0.0
2016-Jun-18 13:32N 44°43' E 037°48'0 0.0
2016-Jun-18 12:32N 44°43' E 037°48'0 0.0
2016-Jun-18 11:32N 44°43' E 037°48'0 0.0
2016-Jun-18 10:32N 44°43' E 037°48'0 0.0
2016-Jun-18 09:32N 44°43' E 037°48'0 0.0
2016-Jun-18 08:32N 44°43' E 037°48'0 0.0
2016-Jun-18 07:32N 44°43' E 037°48'0 0.0
2016-Jun-18 06:29N 44°43' E 037°48'0 0.0
2016-Jun-18 05:32N 44°43' E 037°48'0 0.0
2016-Jun-18 04:29N 44°43' E 037°48'0 0.0
2016-Jun-18 03:32N 44°43' E 037°48'0 0.0
2016-Jun-18 02:29N 44°43' E 037°48'0 0.0
2016-Jun-18 01:32N 44°43' E 037°48'0 0.0
2016-Jun-18 00:32N 44°43' E 037°48'0 0.0
2016-Jun-17 23:32N 44°43' E 037°48'0 0.0
2016-Jun-17 22:32N 44°43' E 037°48'0 0.0
2016-Jun-17 21:32N 44°43' E 037°48'0 0.0
2016-Jun-17 20:32N 44°43' E 037°48'0 0.0
2016-Jun-17 19:32N 44°43' E 037°48'0 0.0
2016-Jun-17 18:32N 44°43' E 037°48'0 0.0
2016-Jun-17 17:32N 44°43' E 037°48'0 0.0
2016-Jun-17 16:32N 44°43' E 037°48'0 0.0
2016-Jun-17 15:32N 44°43' E 037°48'0 0.0
2016-Jun-17 14:32N 44°43' E 037°48'0 0.0
2016-Jun-17 13:32N 44°43' E 037°48'0 0.0
2016-Jun-17 12:32N 44°43' E 037°48'0 0.0
2016-Jun-17 11:32N 44°43' E 037°48'0 0.0
2016-Jun-17 10:32N 44°43' E 037°48'0 0.0
2016-Jun-17 09:32N 44°43' E 037°48'0 0.0
2016-Jun-17 08:32N 44°43' E 037°48'0 0.0
2016-Jun-17 07:32N 44°43' E 037°48'0 0.0
2016-Jun-17 06:32N 44°43' E 037°48'0 0.0
2016-Jun-17 05:32N 44°43' E 037°48'0 0.0
2016-Jun-17 04:32N 44°43' E 037°48'0 0.0
2016-Jun-17 03:32N 44°43' E 037°48'0 0.0
2016-Jun-17 02:32N 44°43' E 037°48'0 0.0
2016-Jun-17 01:32N 44°43' E 037°48'0 0.0
2016-Jun-17 00:32N 44°43' E 037°48'0 0.0
2016-Jun-16 23:32N 44°43' E 037°48'0 0.0
2016-Jun-16 22:32N 44°43' E 037°48'0 0.0
2016-Jun-16 21:32N 44°43' E 037°48'0 0.0
2016-Jun-16 20:32N 44°43' E 037°48'0 0.0
2016-Jun-16 19:32N 44°43' E 037°48'0 0.0
2016-Jun-16 18:32N 44°43' E 037°48'0 0.0
2016-Jun-16 17:32N 44°43' E 037°48'0 0.0
2016-Jun-16 16:32N 44°43' E 037°48'0 0.0
2016-Jun-16 15:32N 44°43' E 037°48'0 0.0
2016-Jun-16 14:32N 44°43' E 037°48'0 0.0
2016-Jun-16 13:32N 44°43' E 037°48'0 0.0
2016-Jun-16 12:32N 44°43' E 037°48'0 0.3
2016-Jun-16 11:33N 44°43' E 037°48'5 5.2
2016-Jun-16 10:34N 44°39' E 037°51'4 3.8
2016-Jun-16 09:31N 44°36' E 037°54'0 0.0
2016-Jun-16 08:28N 44°36' E 037°54'0 0.0
2016-Jun-16 07:31N 44°36' E 037°54'0 0.0
2016-Jun-16 06:31N 44°36' E 037°54'0 0.0
2016-Jun-16 05:31N 44°36' E 037°54'0 0.0
2016-Jun-16 04:31N 44°36' E 037°54'0 0.0
2016-Jun-16 03:31N 44°36' E 037°54'0 0.0
2016-Jun-16 02:31N 44°36' E 037°54'0 0.0
2016-Jun-16 01:31N 44°36' E 037°54'0 0.0
2016-Jun-16 00:31N 44°36' E 037°54'0 0.0
2016-Jun-15 23:31N 44°36' E 037°54'0 0.0
2016-Jun-15 22:22N 44°35' E 037°54'0 0.0
2016-Jun-15 21:31N 44°35' E 037°54'0 0.0
2016-Jun-15 20:31N 44°35' E 037°54'0 0.0
2016-Jun-15 19:31N 44°35' E 037°55'0 0.0
2016-Jun-15 18:31N 44°35' E 037°55'0 0.2
2016-Jun-15 17:31N 44°36' E 037°54'0 0.0
2016-Jun-15 16:31N 44°36' E 037°54'0 0.0
2016-Jun-15 15:31N 44°36' E 037°54'0 0.0
2016-Jun-15 14:31N 44°35' E 037°54'0 0.1
2016-Jun-15 13:31N 44°35' E 037°54'0 0.0
2016-Jun-15 12:31N 44°35' E 037°54'0 0.1
2016-Jun-15 11:31N 44°36' E 037°54'0 0.1
2016-Jun-15 10:31N 44°36' E 037°54'0 0.1
2016-Jun-15 09:31N 44°35' E 037°54'0 0.1
2016-Jun-15 08:31N 44°35' E 037°54'0 0.0
2016-Jun-15 07:31N 44°35' E 037°54'0 0.0
2016-Jun-15 06:28N 44°36' E 037°54'0 0.0
2016-Jun-15 05:31N 44°36' E 037°54'0 0.0
2016-Jun-15 04:31N 44°36' E 037°54'0 0.0
2016-Jun-15 03:31N 44°36' E 037°54'0 0.0
2016-Jun-15 02:31N 44°36' E 037°54'0 0.0
2016-Jun-15 01:31N 44°36' E 037°54'0 0.0
2016-Jun-15 00:31N 44°35' E 037°54'0 0.0
2016-Jun-14 23:31N 44°36' E 037°54'0 0.0
2016-Jun-14 22:31N 44°36' E 037°54'0 0.0
2016-Jun-14 21:31N 44°35' E 037°54'0 0.0
2016-Jun-14 20:31N 44°36' E 037°54'0 0.0
2016-Jun-14 19:22N 44°36' E 037°54'0 0.0
2016-Jun-14 18:31N 44°36' E 037°54'0 0.0
2016-Jun-14 17:31N 44°36' E 037°54'0 0.0
2016-Jun-14 16:31N 44°36' E 037°54'0 0.0
2016-Jun-14 15:31N 44°36' E 037°54'0 0.0
2016-Jun-14 14:31N 44°36' E 037°54'0 0.0
2016-Jun-14 13:28N 44°36' E 037°54'0 0.0
2016-Jun-14 12:31N 44°36' E 037°54'0 0.1
2016-Jun-14 11:31N 44°35' E 037°54'0 0.0
2016-Jun-14 10:31N 44°35' E 037°54'0 0.1
2016-Jun-14 09:31N 44°35' E 037°54'0 0.0
2016-Jun-14 08:31N 44°35' E 037°54'0 0.1
2016-Jun-14 07:31N 44°35' E 037°54'0 0.0
2016-Jun-14 05:31N 44°35' E 037°54'0 0.1
2016-Jun-14 04:31N 44°35' E 037°54'0 0.2
2016-Jun-14 03:31N 44°35' E 037°55'0 0.2
2016-Jun-14 02:31N 44°36' E 037°54'0 0.1
2016-Jun-14 01:31N 44°35' E 037°54'0 0.0
2016-Jun-14 00:31N 44°35' E 037°54'0 0.0
2016-Jun-13 23:31N 44°35' E 037°54'0 0.0
2016-Jun-13 22:31N 44°35' E 037°54'0 0.0
2016-Jun-13 21:31N 44°35' E 037°54'0 0.0
2016-Jun-13 20:31N 44°35' E 037°54'  
Track history (hours):
 
Tides and Currents Weather Stations Pressure Air Temp Water Temp Dewpoint Dewpoint Depression Visibility Wind Speed Wind Dir Waves Ship Positions

Catalonia

Last reported at 2016-Jun-23 20:26 UTC. Time now 2016-Jun-24 20:24 UTC.
Position N 40°46' E 029°29'.

Length 189 m; draft 7.3 m.

Type: Cargo ship. MMSI: 215929000.

Date/timePositionNaut miles runAvg speedWind from/ knotsBaromVisibWave heightAir tempDewpointWater temp
2016-Jun-23 20:26N 40°46' E 029°29'0 0.0
2016-Jun-23 15:20N 40°46' E 029°29'0 0.0
2016-Jun-23 04:26N 40°46' E 029°29'0 0.0
2016-Jun-23 02:20N 40°46' E 029°29'0 0.0
2016-Jun-22 06:20N 40°46' E 029°29'0 0.0
2016-Jun-22 04:32N 40°46' E 029°29'0 0.0
2016-Jun-22 01:32N 40°46' E 029°29'0 0.0
2016-Jun-21 22:32N 40°46' E 029°29'0 0.0
2016-Jun-21 18:20N 40°46' E 029°29'0 0.0
2016-Jun-21 14:19N 40°46' E 029°29'2 2.5
2016-Jun-21 13:33N 40°44' E 029°28'9 9.0
2016-Jun-21 12:33N 40°44' E 029°16'1211.6
2016-Jun-21 11:33N 40°45' E 029°01'1312.3
2016-Jun-21 10:30N 40°58' E 028°58'433 9.6
2016-Jun-19 13:32N 44°29' E 037°33'1212.6
2016-Jun-19 12:33N 44°36' E 037°47'7 7.2
2016-Jun-19 11:33N 44°43' E 037°48'0 0.3
2016-Jun-19 10:32N 44°43' E 037°48'0 0.0
2016-Jun-19 09:32N 44°43' E 037°48'0 0.0
2016-Jun-19 08:32N 44°43' E 037°48'0 0.0
2016-Jun-19 07:32N 44°43' E 037°48'0 0.0
2016-Jun-19 06:32N 44°43' E 037°48'0 0.0
2016-Jun-19 05:32N 44°43' E 037°48'0 0.0
2016-Jun-19 04:32N 44°43' E 037°48'0 0.0
2016-Jun-19 03:32N 44°43' E 037°48'0 0.0
2016-Jun-19 02:32N 44°43' E 037°48'0 0.0
2016-Jun-19 01:32N 44°43' E 037°48'0 0.0
2016-Jun-19 00:32N 44°43' E 037°48'0 0.0
2016-Jun-18 23:32N 44°43' E 037°48'0 0.0
2016-Jun-18 22:32N 44°43' E 037°48'0 0.0
2016-Jun-18 21:32N 44°43' E 037°48'0 0.0
2016-Jun-18 20:32N 44°43' E 037°48'0 0.0
2016-Jun-18 19:32N 44°43' E 037°48'0 0.0
2016-Jun-18 18:32N 44°43' E 037°48'0 0.0
2016-Jun-18 17:23N 44°43' E 037°48'0 0.0
2016-Jun-18 16:32N 44°43' E 037°48'0 0.0
2016-Jun-18 15:32N 44°43' E 037°48'0 0.0
2016-Jun-18 14:32N 44°43' E 037°48'0 0.0
2016-Jun-18 13:32N 44°43' E 037°48'0 0.0
2016-Jun-18 12:32N 44°43' E 037°48'0 0.0
2016-Jun-18 11:32N 44°43' E 037°48'0 0.0
2016-Jun-18 10:32N 44°43' E 037°48'0 0.0
2016-Jun-18 09:32N 44°43' E 037°48'0 0.0
2016-Jun-18 08:32N 44°43' E 037°48'0 0.0
2016-Jun-18 07:32N 44°43' E 037°48'0 0.0
2016-Jun-18 06:29N 44°43' E 037°48'0 0.0
2016-Jun-18 05:32N 44°43' E 037°48'0 0.0
2016-Jun-18 04:29N 44°43' E 037°48'0 0.0
2016-Jun-18 03:32N 44°43' E 037°48'0 0.0
2016-Jun-18 02:29N 44°43' E 037°48'0 0.0
2016-Jun-18 01:32N 44°43' E 037°48'0 0.0
2016-Jun-18 00:32N 44°43' E 037°48'0 0.0
2016-Jun-17 23:32N 44°43' E 037°48'0 0.0
2016-Jun-17 22:32N 44°43' E 037°48'0 0.0
2016-Jun-17 21:32N 44°43' E 037°48'0 0.0
2016-Jun-17 20:32N 44°43' E 037°48'0 0.0
2016-Jun-17 19:32N 44°43' E 037°48'0 0.0
2016-Jun-17 18:32N 44°43' E 037°48'0 0.0
2016-Jun-17 17:32N 44°43' E 037°48'0 0.0
2016-Jun-17 16:32N 44°43' E 037°48'0 0.0
2016-Jun-17 15:32N 44°43' E 037°48'0 0.0
2016-Jun-17 14:32N 44°43' E 037°48'0 0.0
2016-Jun-17 13:32N 44°43' E 037°48'0 0.0
2016-Jun-17 12:32N 44°43' E 037°48'0 0.0
2016-Jun-17 11:32N 44°43' E 037°48'0 0.0
2016-Jun-17 10:32N 44°43' E 037°48'0 0.0
2016-Jun-17 09:32N 44°43' E 037°48'0 0.0
2016-Jun-17 08:32N 44°43' E 037°48'0 0.0
2016-Jun-17 07:32N 44°43' E 037°48'0 0.0
2016-Jun-17 06:32N 44°43' E 037°48'0 0.0
2016-Jun-17 05:32N 44°43' E 037°48'0 0.0
2016-Jun-17 04:32N 44°43' E 037°48'0 0.0
2016-Jun-17 03:32N 44°43' E 037°48'0 0.0
2016-Jun-17 02:32N 44°43' E 037°48'0 0.0
2016-Jun-17 01:32N 44°43' E 037°48'0 0.0
2016-Jun-17 00:32N 44°43' E 037°48'0 0.0
2016-Jun-16 23:32N 44°43' E 037°48'0 0.0
2016-Jun-16 22:32N 44°43' E 037°48'0 0.0
2016-Jun-16 21:32N 44°43' E 037°48'0 0.0
2016-Jun-16 20:32N 44°43' E 037°48'0 0.0
2016-Jun-16 19:32N 44°43' E 037°48'0 0.0
2016-Jun-16 18:32N 44°43' E 037°48'0 0.0
2016-Jun-16 17:32N 44°43' E 037°48'0 0.0
2016-Jun-16 16:32N 44°43' E 037°48'0 0.0
2016-Jun-16 15:32N 44°43' E 037°48'0 0.0
2016-Jun-16 14:32N 44°43' E 037°48'0 0.0
2016-Jun-16 13:32N 44°43' E 037°48'0 0.0
2016-Jun-16 12:32N 44°43' E 037°48'0 0.3
2016-Jun-16 11:33N 44°43' E 037°48'5 5.2
2016-Jun-16 10:34N 44°39' E 037°51'4 3.8
2016-Jun-16 09:31N 44°36' E 037°54'0 0.0
2016-Jun-16 08:28N 44°36' E 037°54'0 0.0
2016-Jun-16 07:31N 44°36' E 037°54'0 0.0
2016-Jun-16 06:31N 44°36' E 037°54'0 0.0
2016-Jun-16 05:31N 44°36' E 037°54'0 0.0
2016-Jun-16 04:31N 44°36' E 037°54'0 0.0
2016-Jun-16 03:31N 44°36' E 037°54'0 0.0
2016-Jun-16 02:31N 44°36' E 037°54'0 0.0
2016-Jun-16 01:31N 44°36' E 037°54'0 0.0
2016-Jun-16 00:31N 44°36' E 037°54'0 0.0
2016-Jun-15 23:31N 44°36' E 037°54'0 0.0
2016-Jun-15 22:22N 44°35' E 037°54'0 0.0
2016-Jun-15 21:31N 44°35' E 037°54'0 0.0
2016-Jun-15 20:31N 44°35' E 037°54'0 0.0
2016-Jun-15 19:31N 44°35' E 037°55'0 0.0
2016-Jun-15 18:31N 44°35' E 037°55'0 0.2
2016-Jun-15 17:31N 44°36' E 037°54'0 0.0
2016-Jun-15 16:31N 44°36' E 037°54'0 0.0
2016-Jun-15 15:31N 44°36' E 037°54'0 0.0
2016-Jun-15 14:31N 44°35' E 037°54'0 0.1
2016-Jun-15 13:31N 44°35' E 037°54'0 0.0
2016-Jun-15 12:31N 44°35' E 037°54'0 0.1
2016-Jun-15 11:31N 44°36' E 037°54'0 0.1
2016-Jun-15 10:31N 44°36' E 037°54'0 0.1
2016-Jun-15 09:31N 44°35' E 037°54'0 0.1
2016-Jun-15 08:31N 44°35' E 037°54'0 0.0
2016-Jun-15 07:31N 44°35' E 037°54'0 0.0
2016-Jun-15 06:28N 44°36' E 037°54'0 0.0
2016-Jun-15 05:31N 44°36' E 037°54'0 0.0
2016-Jun-15 04:31N 44°36' E 037°54'0 0.0
2016-Jun-15 03:31N 44°36' E 037°54'0 0.0
2016-Jun-15 02:31N 44°36' E 037°54'0 0.0
2016-Jun-15 01:31N 44°36' E 037°54'0 0.0
2016-Jun-15 00:31N 44°35' E 037°54'0 0.0
2016-Jun-14 23:31N 44°36' E 037°54'0 0.0
2016-Jun-14 22:31N 44°36' E 037°54'0 0.0
2016-Jun-14 21:31N 44°35' E 037°54'0 0.0
2016-Jun-14 20:31N 44°36' E 037°54'0 0.0
2016-Jun-14 19:22N 44°36' E 037°54'0 0.0
2016-Jun-14 18:31N 44°36' E 037°54'0 0.0
2016-Jun-14 17:31N 44°36' E 037°54'0 0.0
2016-Jun-14 16:31N 44°36' E 037°54'0 0.0
2016-Jun-14 15:31N 44°36' E 037°54'0 0.0
2016-Jun-14 14:31N 44°36' E 037°54'0 0.0
2016-Jun-14 13:28N 44°36' E 037°54'0 0.0
2016-Jun-14 12:31N 44°36' E 037°54'0 0.1
2016-Jun-14 11:31N 44°35' E 037°54'0 0.0
2016-Jun-14 10:31N 44°35' E 037°54'0 0.1
2016-Jun-14 09:31N 44°35' E 037°54'0 0.0
2016-Jun-14 08:31N 44°35' E 037°54'0 0.1
2016-Jun-14 07:31N 44°35' E 037°54'0 0.0
2016-Jun-14 05:31N 44°35' E 037°54'0 0.1
2016-Jun-14 04:31N 44°35' E 037°54'0 0.2
2016-Jun-14 03:31N 44°35' E 037°55'0 0.2
2016-Jun-14 02:31N 44°36' E 037°54'0 0.1
2016-Jun-14 01:31N 44°35' E 037°54'0 0.0
2016-Jun-14 00:31N 44°35' E 037°54'0 0.0
2016-Jun-13 23:31N 44°35' E 037°54'0 0.0
2016-Jun-13 22:31N 44°35' E 037°54'0 0.0
2016-Jun-13 21:31N 44°35' E 037°54'0 0.0
2016-Jun-13 20:31N 44°35' E 037°54'  

Dump ship's entire track history